createdAt,value
2019-05-01T00:00:15.333Z,11.83
2019-05-01T00:02:39.540Z,12.43
2019-05-01T00:05:17.954Z,12.93
2019-05-01T00:07:49.162Z,14.20
2019-05-01T00:10:22.063Z,14.43
2019-05-01T00:12:52.966Z,13.40
2019-05-01T00:15:25.587Z,14.60
2019-05-01T00:17:56.636Z,15.95
2019-05-01T00:20:28.801Z,15.55
2019-05-01T00:22:59.638Z,16.60
2019-05-01T00:25:30.504Z,15.73
2019-05-01T00:28:01.827Z,15.87
2019-05-01T00:30:36.315Z,15.97
2019-05-01T00:33:07.182Z,16.33
2019-05-01T00:35:37.979Z,15.80
2019-05-01T00:38:08.848Z,14.90
2019-05-01T00:40:41.318Z,16.47
2019-05-01T00:43:12.292Z,16.60
2019-05-01T00:45:43.502Z,15.77
2019-05-01T00:48:14.348Z,15.78
2019-05-01T00:50:45.106Z,16.80
2019-05-01T00:53:15.984Z,16.90
2019-05-01T00:55:57.803Z,16.65
2019-05-01T00:58:30.277Z,16.40
2019-05-01T01:01:20.347Z,17.27
2019-05-01T01:03:51.720Z,16.65
2019-05-01T01:06:22.579Z,16.77
2019-05-01T01:08:53.483Z,15.83
2019-05-01T01:11:25.650Z,17.50
2019-05-01T01:13:56.625Z,18.00
2019-05-01T01:16:27.329Z,16.90
2019-05-01T01:18:58.259Z,18.67
2019-05-01T01:21:29.158Z,16.17
2019-05-01T01:24:00.568Z,17.87
2019-05-01T01:26:31.656Z,17.13
2019-05-01T01:29:02.631Z,18.52
2019-05-01T01:31:34.890Z,18.52
2019-05-01T01:34:06.749Z,17.70
2019-05-01T01:36:38.715Z,17.32
2019-05-01T01:39:09.685Z,17.85
2019-05-01T01:41:41.921Z,18.05
2019-05-01T01:44:17.466Z,18.82
2019-05-01T01:46:50.964Z,19.27
2019-05-01T01:49:21.827Z,17.42
2019-05-01T01:51:52.899Z,21.67
2019-05-01T01:54:23.880Z,19.57
2019-05-01T01:56:54.852Z,19.67
2019-05-01T01:59:26.249Z,20.33
2019-05-01T02:02:11.129Z,21.07
2019-05-01T02:04:49.339Z,21.10
2019-05-01T02:07:20.273Z,20.53
2019-05-01T02:09:51.163Z,22.73
2019-05-01T02:12:24.315Z,21.35
2019-05-01T02:14:55.115Z,21.27
2019-05-01T02:17:26.180Z,21.30
2019-05-01T02:19:58.511Z,21.30
2019-05-01T02:22:29.487Z,22.97
2019-05-01T02:25:00.487Z,21.17
2019-05-01T02:27:36.034Z,22.05
2019-05-01T02:30:09.099Z,22.47
2019-05-01T02:32:40.834Z,22.33
2019-05-01T02:35:12.054Z,23.67
2019-05-01T02:37:44.208Z,24.75
2019-05-01T02:40:42.201Z,26.37
2019-05-01T02:43:16.288Z,23.95
2019-05-01T02:45:50.016Z,24.32
2019-05-01T02:48:22.747Z,25.70
2019-05-01T02:50:58.667Z,25.05
2019-05-01T02:53:31.201Z,25.13
2019-05-01T02:56:19.773Z,25.77
2019-05-01T02:58:52.661Z,25.47
2019-05-01T03:01:25.948Z,27.30
2019-05-01T03:03:57.710Z,28.93
2019-05-01T03:06:30.799Z,27.60
2019-05-01T03:09:04.206Z,27.17
2019-05-01T03:11:38.133Z,27.20
2019-05-01T03:14:11.890Z,28.13
2019-05-01T03:16:44.284Z,28.63
2019-05-01T03:19:19.992Z,30.13
2019-05-01T03:21:56.472Z,29.77
2019-05-01T03:24:28.731Z,29.60
2019-05-01T03:27:00.934Z,29.37
2019-05-01T03:29:32.728Z,28.27
2019-05-01T03:32:17.306Z,29.13
2019-05-01T03:34:38.056Z,29.37
2019-05-01T03:37:10.013Z,29.90
2019-05-01T03:39:41.971Z,28.10
2019-05-01T03:42:13.108Z,25.30
2019-05-01T03:44:44.642Z,29.47
2019-05-01T03:47:15.550Z,29.90
2019-05-01T03:49:47.951Z,29.70
2019-05-01T03:52:19.226Z,29.13
2019-05-01T03:54:50.299Z,30.37
2019-05-01T03:57:21.606Z,29.63
2019-05-01T03:59:53.880Z,28.43
2019-05-01T04:02:34.379Z,29.40
2019-05-01T04:05:05.885Z,29.07
2019-05-01T04:07:37.094Z,27.27
2019-05-01T04:10:09.095Z,29.10
2019-05-01T04:12:40.642Z,30.23
2019-05-01T04:15:11.786Z,28.97
2019-05-01T04:17:47.785Z,28.80
2019-05-01T04:20:18.787Z,27.97
2019-05-01T04:22:49.892Z,28.77
2019-05-01T04:25:20.859Z,28.13
2019-05-01T04:27:53.217Z,26.87
2019-05-01T04:30:37.281Z,30.20
2019-05-01T04:33:10.152Z,29.47
2019-05-01T04:35:54.821Z,26.23
2019-05-01T04:38:26.038Z,27.83
2019-05-01T04:40:56.994Z,28.00
2019-05-01T04:43:27.991Z,29.23
2019-05-01T04:45:59.051Z,28.53
2019-05-01T04:48:30.976Z,27.73
2019-05-01T04:51:01.777Z,27.30
2019-05-01T04:53:32.574Z,30.17
2019-05-01T04:56:05.099Z,29.33
2019-05-01T04:58:36.032Z,30.30
2019-05-01T05:01:07.052Z,29.63
2019-05-01T05:03:38.242Z,30.27
2019-05-01T05:06:09.859Z,28.10
2019-05-01T05:08:40.901Z,29.87
2019-05-01T05:11:16.752Z,29.17
2019-05-01T05:14:05.611Z,28.23
2019-05-01T05:16:47.172Z,29.17
2019-05-01T05:19:19.426Z,29.23
2019-05-01T05:21:50.743Z,29.77
2019-05-01T05:24:21.854Z,28.10
2019-05-01T05:26:55.150Z,28.93
2019-05-01T05:29:26.786Z,27.97
2019-05-01T05:32:00.126Z,29.67
2019-05-01T05:34:32.645Z,27.47
2019-05-01T05:37:11.172Z,27.67
2019-05-01T05:39:44.333Z,25.83
2019-05-01T05:42:15.794Z,26.97
2019-05-01T05:44:48.200Z,28.27
2019-05-01T05:47:20.179Z,28.83
2019-05-01T05:49:51.427Z,27.43
2019-05-01T05:52:42.051Z,27.37
2019-05-01T05:55:23.385Z,28.80
2019-05-01T05:57:58.625Z,28.13
2019-05-01T06:00:45.528Z,27.50
2019-05-01T06:03:36.240Z,27.37
2019-05-01T06:06:27.040Z,26.97
2019-05-01T06:09:00.234Z,26.47
2019-05-01T06:11:53.921Z,27.67
2019-05-01T06:14:40.305Z,28.60
2019-05-01T06:17:12.922Z,28.27
2019-05-01T06:19:54.855Z,28.70
2019-05-01T06:22:33.802Z,26.77
2019-05-01T06:25:24.433Z,27.33
2019-05-01T06:27:50.452Z,26.73
2019-05-01T06:30:22.440Z,27.30
2019-05-01T06:32:53.500Z,26.93
2019-05-01T06:35:24.864Z,28.03
2019-05-01T06:38:02.274Z,27.27
2019-05-01T06:40:42.620Z,25.27
2019-05-01T06:43:20.112Z,25.43
2019-05-01T06:45:55.624Z,25.63
2019-05-01T06:48:28.148Z,24.30
2019-05-01T06:51:07.776Z,24.73
2019-05-01T06:53:39.976Z,24.30
2019-05-01T06:56:11.234Z,24.97
2019-05-01T06:58:42.125Z,22.35
2019-05-01T07:01:13.751Z,23.67
2019-05-01T07:04:02.829Z,24.90
2019-05-01T07:06:19.720Z,22.23
2019-05-01T07:08:51.241Z,23.62
2019-05-01T07:11:24.427Z,23.60
2019-05-01T07:13:56.268Z,22.25
2019-05-01T07:16:27.057Z,21.62
2019-05-01T07:19:05.909Z,22.27
2019-05-01T07:21:32.784Z,23.20
2019-05-01T07:24:03.842Z,22.37
2019-05-01T07:26:35.855Z,23.87
2019-05-01T07:29:17.620Z,21.07
2019-05-01T07:31:48.599Z,19.65
2019-05-01T07:34:21.685Z,23.55
2019-05-01T07:36:53.561Z,23.42
2019-05-01T07:39:24.490Z,22.15
2019-05-01T07:42:00.016Z,21.20
2019-05-01T07:44:33.868Z,21.30
2019-05-01T07:47:17.625Z,21.95
2019-05-01T07:49:54.708Z,20.17
2019-05-01T07:52:28.080Z,21.55
2019-05-01T07:55:00.996Z,21.20
2019-05-01T07:57:34.299Z,19.82
2019-05-01T08:00:18.158Z,21.23
2019-05-01T08:02:49.716Z,19.62
2019-05-01T08:05:25.579Z,21.37
2019-05-01T08:08:02.823Z,20.65
2019-05-01T08:10:33.985Z,19.17
2019-05-01T08:13:10.123Z,21.95
2019-05-01T08:15:45.957Z,20.40
2019-05-01T08:18:36.191Z,18.65
2019-05-01T08:21:26.078Z,20.10
2019-05-01T08:23:57.730Z,18.95
2019-05-01T08:26:31.753Z,18.77
2019-05-01T08:29:23.287Z,19.07
2019-05-01T08:32:04.697Z,19.32
2019-05-01T08:34:49.179Z,18.23
2019-05-01T08:37:22.529Z,18.10
2019-05-01T08:39:52.284Z,17.80
2019-05-01T08:42:23.852Z,18.00
2019-05-01T08:45:06.934Z,17.87
2019-05-01T08:47:42.829Z,17.60
2019-05-01T08:50:19.819Z,18.55
2019-05-01T08:52:52.867Z,17.95
2019-05-01T08:55:26.721Z,16.70
2019-05-01T08:57:58.958Z,16.67
2019-05-01T09:00:30.915Z,16.07
2019-05-01T09:03:08.431Z,15.53
2019-05-01T09:05:39.510Z,14.38
2019-05-01T09:08:10.508Z,15.63
2019-05-01T09:10:43.756Z,14.45
2019-05-01T09:13:18.850Z,15.28
2019-05-01T09:15:49.441Z,13.85
2019-05-01T09:18:20.543Z,15.60
2019-05-01T09:20:53.181Z,13.13
2019-05-01T09:23:25.513Z,14.28
2019-05-01T09:26:14.553Z,13.58
2019-05-01T09:28:44.092Z,14.35
2019-05-01T09:31:16.602Z,13.85
2019-05-01T09:33:56.747Z,13.95
2019-05-01T09:36:28.584Z,13.35
2019-05-01T09:39:00.513Z,12.10
2019-05-01T09:41:38.384Z,13.88
2019-05-01T09:44:10.680Z,13.03
2019-05-01T09:46:42.947Z,12.58
2019-05-01T09:49:19.406Z,12.55
2019-05-01T09:51:58.227Z,12.07
2019-05-01T09:54:38.406Z,11.50
2019-05-01T09:57:09.993Z,12.63
2019-05-01T09:59:41.252Z,12.03
2019-05-01T10:02:14.139Z,10.82
2019-05-01T10:04:49.037Z,11.48
2019-05-01T10:07:23.835Z,11.08
2019-05-01T10:09:56.128Z,11.48
2019-05-01T10:12:30.688Z,10.93
2019-05-01T10:15:02.097Z,11.12
2019-05-01T10:17:33.430Z,10.70
2019-05-01T10:20:07.840Z,10.95
2019-05-01T10:22:39.936Z,9.65
2019-05-01T10:25:13.687Z,10.40
2019-05-01T10:27:49.115Z,9.63
2019-05-01T10:30:37.845Z,10.15
2019-05-01T10:33:13.840Z,10.05
2019-05-01T10:36:03.637Z,11.68
2019-05-01T10:38:34.929Z,11.70
2019-05-01T10:41:09.291Z,10.45
2019-05-01T10:43:41.074Z,10.58
2019-05-01T10:46:13.054Z,10.55
2019-05-01T10:48:43.936Z,10.13
2019-05-01T10:51:16.168Z,10.55
2019-05-01T10:53:47.135Z,11.30
2019-05-01T10:56:18.252Z,11.43
2019-05-01T10:58:49.218Z,10.08
2019-05-01T11:01:33.995Z,9.63
2019-05-01T11:04:05.363Z,9.80
2019-05-01T11:06:36.470Z,10.90
2019-05-01T11:09:08.037Z,10.63
2019-05-01T11:11:40.187Z,9.85
2019-05-01T11:14:11.122Z,10.00
2019-05-01T11:16:42.120Z,9.65
2019-05-01T11:19:13.275Z,9.90
2019-05-01T11:21:45.780Z,10.03
2019-05-01T11:24:16.794Z,9.73
2019-05-01T11:26:47.860Z,10.38
2019-05-01T11:29:18.977Z,11.03
2019-05-01T11:32:01.483Z,10.03
2019-05-01T11:34:36.958Z,10.98
2019-05-01T11:37:25.889Z,10.32
2019-05-01T11:40:04.639Z,9.25
2019-05-01T11:42:35.477Z,9.13
2019-05-01T11:45:12.566Z,9.13
2019-05-01T11:47:43.502Z,9.28
2019-05-01T11:50:15.581Z,8.18
2019-05-01T11:52:46.497Z,8.45
2019-05-01T11:55:17.260Z,8.03
2019-05-01T11:57:48.188Z,7.25
2019-05-01T12:00:20.510Z,7.00
2019-05-01T12:02:51.279Z,6.50
2019-05-01T12:05:22.210Z,7.22
2019-05-01T12:07:53.116Z,7.37
2019-05-01T12:10:25.312Z,7.03
2019-05-01T12:12:56.156Z,6.80
2019-05-01T12:15:27.156Z,5.70
2019-05-01T12:17:57.939Z,6.37
2019-05-01T12:20:28.785Z,7.00
2019-05-01T12:22:59.595Z,6.53
2019-05-01T12:25:30.465Z,6.33
2019-05-01T12:28:01.437Z,6.62
2019-05-01T12:30:32.256Z,5.85
2019-05-01T12:33:03.052Z,6.17
2019-05-01T12:35:33.876Z,6.22
2019-05-01T12:38:06.142Z,6.70
2019-05-01T12:40:37.133Z,5.37
2019-05-01T12:43:08.021Z,6.17
2019-05-01T12:45:38.979Z,5.97
2019-05-01T12:48:11.412Z,6.12
2019-05-01T12:50:42.289Z,5.67
2019-05-01T12:53:17.645Z,7.03
2019-05-01T12:55:53.213Z,5.72
2019-05-01T12:58:25.528Z,5.08
2019-05-01T13:00:56.685Z,5.12
2019-05-01T13:03:27.471Z,5.90
2019-05-01T13:05:58.219Z,5.15
2019-05-01T13:08:30.198Z,5.30
2019-05-01T13:11:01.621Z,5.30
2019-05-01T13:13:32.491Z,5.60
2019-05-01T13:16:03.424Z,5.70
2019-05-01T13:18:34.462Z,6.15
2019-05-01T13:21:05.368Z,6.00
2019-05-01T13:23:36.340Z,5.33
2019-05-01T13:26:08.953Z,5.60
2019-05-01T13:28:48.370Z,4.78
2019-05-01T13:31:37.354Z,5.10
2019-05-01T13:34:09.686Z,5.12
2019-05-01T13:36:40.409Z,5.60
2019-05-01T13:39:12.205Z,5.08
2019-05-01T13:41:43.112Z,4.83
2019-05-01T13:44:14.372Z,4.60
2019-05-01T13:46:46.120Z,3.70
2019-05-01T13:49:16.950Z,3.50
2019-05-01T13:51:47.757Z,3.90
2019-05-01T13:54:18.753Z,3.50
2019-05-01T13:56:50.852Z,4.12
2019-05-01T13:59:21.827Z,3.65
2019-05-01T14:01:52.795Z,3.90
2019-05-01T14:04:24.599Z,4.45
2019-05-01T14:06:55.568Z,3.50
2019-05-01T14:09:28.143Z,4.47
2019-05-01T14:11:58.994Z,4.87
2019-05-01T14:14:30.429Z,4.67
2019-05-01T14:17:02.266Z,4.05
2019-05-01T14:19:34.699Z,4.22
2019-05-01T14:22:10.431Z,4.70
2019-05-01T14:24:42.964Z,4.40
2019-05-01T14:27:14.036Z,4.03
2019-05-01T14:29:45.427Z,4.37
2019-05-01T14:32:16.175Z,3.98
2019-05-01T14:34:46.971Z,3.50
2019-05-01T14:37:29.004Z,3.47
2019-05-01T14:39:50.161Z,4.00
2019-05-01T14:42:20.855Z,4.30
2019-05-01T14:44:51.654Z,3.70
2019-05-01T14:47:22.423Z,3.50
2019-05-01T14:49:53.293Z,3.20
2019-05-01T14:52:24.227Z,3.83
2019-05-01T14:54:55.165Z,2.87
2019-05-01T14:57:25.917Z,3.92
2019-05-01T14:59:57.327Z,3.90
2019-05-01T15:02:28.073Z,3.52
2019-05-01T15:04:58.855Z,3.70
2019-05-01T15:07:42.124Z,3.20
2019-05-01T15:10:05.924Z,3.62
2019-05-01T15:12:37.155Z,3.12
2019-05-01T15:15:24.990Z,3.10
2019-05-01T15:17:57.447Z,3.12
2019-05-01T15:20:29.295Z,3.00
2019-05-01T15:23:00.039Z,2.90
2019-05-01T15:25:30.913Z,2.92
2019-05-01T15:28:01.806Z,2.50
2019-05-01T15:30:32.606Z,2.55
2019-05-01T15:33:03.567Z,2.35
2019-05-01T15:35:35.465Z,2.98
2019-05-01T15:38:07.732Z,2.33
2019-05-01T15:40:41.149Z,2.80
2019-05-01T15:43:25.860Z,2.58
2019-05-01T15:45:57.239Z,2.10
2019-05-01T15:48:29.608Z,2.55
2019-05-01T15:51:00.498Z,2.60
2019-05-01T15:53:31.279Z,2.33
2019-05-01T15:56:02.528Z,2.08
2019-05-01T15:58:34.302Z,2.05
2019-05-01T16:01:05.429Z,2.12
2019-05-01T16:03:36.645Z,2.35
2019-05-01T16:06:08.438Z,2.25
2019-05-01T16:08:40.802Z,2.45
2019-05-01T16:11:30.971Z,2.62
2019-05-01T16:14:02.192Z,2.33
2019-05-01T16:16:33.098Z,2.42
2019-05-01T16:19:05.430Z,2.45
2019-05-01T16:21:36.207Z,2.08
2019-05-01T16:24:06.983Z,2.20
2019-05-01T16:26:38.951Z,1.65
2019-05-01T16:29:09.659Z,1.98
2019-05-01T16:31:42.180Z,1.40
2019-05-01T16:34:13.098Z,1.80
2019-05-01T16:36:44.131Z,1.90
2019-05-01T16:39:24.268Z,1.90
2019-05-01T16:41:55.252Z,2.45
2019-05-01T16:44:25.967Z,2.00
2019-05-01T16:46:56.817Z,2.00
2019-05-01T16:49:29.260Z,2.22
2019-05-01T16:52:00.398Z,2.17
2019-05-01T16:54:31.733Z,1.87
2019-05-01T16:57:02.652Z,1.65
2019-05-01T16:59:35.387Z,1.95
2019-05-01T17:02:19.525Z,1.95
2019-05-01T17:04:58.681Z,1.85
2019-05-01T17:07:33.937Z,1.75
2019-05-01T17:10:08.171Z,1.82
2019-05-01T17:12:49.519Z,1.57
2019-05-01T17:15:28.440Z,1.57
2019-05-01T17:17:59.309Z,1.77
2019-05-01T17:20:30.723Z,1.70
2019-05-01T17:23:01.696Z,2.17
2019-05-01T17:25:32.568Z,2.30
2019-05-01T17:28:08.288Z,2.27
2019-05-01T17:30:48.561Z,2.45
2019-05-01T17:33:20.793Z,2.52
2019-05-01T17:35:51.951Z,2.62
2019-05-01T17:38:23.024Z,1.70
2019-05-01T17:40:55.020Z,1.70
2019-05-01T17:43:27.289Z,1.30
2019-05-01T17:45:58.232Z,1.70
2019-05-01T17:48:33.543Z,1.70
2019-05-01T17:51:01.980Z,1.50
2019-05-01T17:53:34.861Z,1.82
2019-05-01T17:56:09.958Z,1.40
2019-05-01T17:58:38.365Z,1.82
2019-05-01T18:01:14.727Z,1.60
2019-05-01T18:03:52.101Z,1.40
2019-05-01T18:06:29.186Z,1.85
2019-05-01T18:09:03.466Z,1.47
2019-05-01T18:11:36.405Z,1.90
2019-05-01T18:14:11.407Z,1.50
2019-05-01T18:16:44.209Z,1.80
2019-05-01T18:19:16.969Z,1.72
2019-05-01T18:21:51.944Z,1.80
2019-05-01T18:24:44.191Z,1.72
2019-05-01T18:27:21.747Z,1.70
2019-05-01T18:29:56.221Z,1.92
2019-05-01T18:32:36.478Z,1.52
2019-05-01T18:35:14.214Z,1.90
2019-05-01T18:37:47.346Z,1.90
2019-05-01T18:40:27.692Z,1.98
2019-05-01T18:43:01.602Z,2.15
2019-05-01T18:45:52.190Z,2.20
2019-05-01T18:48:25.969Z,2.00
2019-05-01T18:50:58.367Z,1.90
2019-05-01T18:53:30.920Z,2.37
2019-05-01T18:56:07.785Z,2.10
2019-05-01T18:58:41.814Z,2.08
2019-05-01T19:01:14.788Z,1.72
2019-05-01T19:03:46.144Z,1.92
2019-05-01T19:06:18.606Z,2.00
2019-05-01T19:08:50.323Z,2.30
2019-05-01T19:11:22.807Z,2.33
2019-05-01T19:13:55.076Z,1.92
2019-05-01T19:16:29.352Z,2.42
2019-05-01T19:19:03.929Z,2.47
2019-05-01T19:21:36.320Z,2.45
2019-05-01T19:24:09.094Z,2.08
2019-05-01T19:26:42.634Z,2.20
2019-05-01T19:29:16.035Z,2.80
2019-05-01T19:31:48.635Z,2.52
2019-05-01T19:34:21.005Z,3.00
2019-05-01T19:36:54.870Z,3.65
2019-05-01T19:39:28.490Z,3.92
2019-05-01T19:42:02.805Z,3.33
2019-05-01T19:44:36.560Z,3.80
2019-05-01T19:47:09.200Z,4.22
2019-05-01T19:49:41.051Z,4.25
2019-05-01T19:52:13.708Z,3.77
2019-05-01T19:54:48.068Z,4.33
2019-05-01T19:57:22.427Z,4.78
2019-05-01T19:59:55.127Z,4.30
2019-05-01T20:02:27.146Z,3.83
2019-05-01T20:05:02.443Z,4.20
2019-05-01T20:07:34.896Z,4.43
2019-05-01T20:10:10.305Z,4.30
2019-05-01T20:12:44.166Z,4.42
2019-05-01T20:15:19.814Z,4.00
2019-05-01T20:17:51.528Z,3.85
2019-05-01T20:20:25.468Z,4.80
2019-05-01T20:22:57.205Z,4.75
2019-05-01T20:25:31.119Z,4.50
2019-05-01T20:28:04.207Z,4.10
2019-05-01T20:30:37.165Z,4.83
2019-05-01T20:33:12.673Z,4.40
2019-05-01T20:35:44.091Z,5.30
2019-05-01T20:38:15.610Z,4.70
2019-05-01T20:40:46.745Z,4.80
2019-05-01T20:43:18.017Z,4.63
2019-05-01T20:45:51.300Z,5.00
2019-05-01T20:48:25.177Z,4.87
2019-05-01T20:50:56.670Z,4.90
2019-05-01T20:53:29.645Z,4.87
2019-05-01T20:56:12.881Z,4.87
2019-05-01T20:58:45.283Z,5.30
2019-05-01T21:01:16.600Z,4.90
2019-05-01T21:03:52.494Z,5.47
2019-05-01T21:06:23.364Z,5.50
2019-05-01T21:08:59.421Z,5.53
2019-05-01T21:11:48.771Z,5.83
2019-05-01T21:14:22.851Z,5.40
2019-05-01T21:16:55.268Z,5.60
2019-05-01T21:19:28.716Z,5.47
2019-05-01T21:21:59.214Z,4.83
2019-05-01T21:24:31.128Z,5.47
2019-05-01T21:27:03.479Z,5.47
2019-05-01T21:29:34.932Z,5.27
2019-05-01T21:32:06.335Z,5.67
2019-05-01T21:34:38.654Z,6.60
2019-05-01T21:37:11.829Z,7.00
2019-05-01T21:39:43.746Z,6.97
2019-05-01T21:42:16.030Z,7.40
2019-05-01T21:44:48.519Z,6.67
2019-05-01T21:47:23.648Z,7.73
2019-05-01T21:49:55.244Z,7.10
2019-05-01T21:52:27.059Z,7.17
2019-05-01T21:54:58.515Z,7.20
2019-05-01T21:57:32.563Z,7.27
2019-05-01T22:00:02.859Z,8.37
2019-05-01T22:02:36.652Z,8.00
2019-05-01T22:05:08.263Z,8.47
2019-05-01T22:07:39.528Z,7.83
2019-05-01T22:10:12.550Z,7.83
2019-05-01T22:12:49.124Z,8.57
2019-05-01T22:15:28.035Z,8.20
2019-05-01T22:18:06.551Z,8.23
2019-05-01T22:20:39.367Z,8.87
2019-05-01T22:23:11.840Z,8.90
2019-05-01T22:25:44.381Z,8.97
2019-05-01T22:28:18.785Z,9.23
2019-05-01T22:30:51.099Z,8.47
2019-05-01T22:33:21.975Z,9.23
2019-05-01T22:35:53.739Z,9.07
2019-05-01T22:38:24.771Z,8.30
2019-05-01T22:41:07.246Z,9.00
2019-05-01T22:43:38.510Z,8.30
2019-05-01T22:46:11.202Z,9.97
2019-05-01T22:48:43.698Z,8.87
2019-05-01T22:51:16.216Z,9.33
2019-05-01T22:53:49.784Z,9.60
2019-05-01T22:56:20.598Z,10.07
2019-05-01T22:58:52.683Z,8.80
2019-05-01T23:01:23.767Z,8.90
2019-05-01T23:03:56.358Z,9.83
2019-05-01T23:06:27.341Z,9.53
2019-05-01T23:08:59.313Z,8.93
2019-05-01T23:11:32.941Z,9.13
2019-05-01T23:14:03.896Z,9.60
2019-05-01T23:16:36.515Z,9.30
2019-05-01T23:19:08.959Z,9.27
2019-05-01T23:21:40.161Z,8.80
2019-05-01T23:24:11.029Z,9.37
2019-05-01T23:26:41.975Z,9.50
2019-05-01T23:29:14.074Z,9.00
2019-05-01T23:31:45.115Z,9.20
2019-05-01T23:34:15.949Z,9.17
2019-05-01T23:36:47.910Z,8.90
2019-05-01T23:39:20.053Z,8.77
2019-05-01T23:41:52.653Z,9.00
2019-05-01T23:44:23.516Z,9.07
2019-05-01T23:46:54.302Z,8.13
2019-05-01T23:49:26.779Z,7.97
2019-05-01T23:51:58.643Z,8.90
2019-05-01T23:54:30.019Z,8.40
2019-05-01T23:57:00.969Z,8.17
2019-05-01T23:59:33.077Z,7.83
